createdAt,value
2023-03-21T00:01:15.816Z,16.70
2023-03-21T00:03:46.984Z,14.10
2023-03-21T00:06:17.499Z,16.02
2023-03-21T00:08:46.396Z,14.10
2023-03-21T00:11:16.761Z,12.70
2023-03-21T00:13:43.888Z,10.68
2023-03-21T00:16:23.132Z,12.38
2023-03-21T00:18:54.427Z,11.68
2023-03-21T00:21:44.333Z,15.15
2023-03-21T00:24:17.196Z,15.70
2023-03-21T00:26:44.938Z,13.65
2023-03-21T00:29:12.108Z,18.38
2023-03-21T00:31:39.106Z,15.90
2023-03-21T00:34:06.422Z,13.68
2023-03-21T00:36:33.643Z,13.40
2023-03-21T00:39:06.332Z,14.63
2023-03-21T00:41:48.940Z,14.73
2023-03-21T00:44:17.637Z,18.80
2023-03-21T00:46:57.406Z,15.10
2023-03-21T00:49:33.886Z,14.82
2023-03-21T00:52:18.355Z,18.95
2023-03-21T00:54:52.094Z,15.70
2023-03-21T00:57:22.114Z,13.90
2023-03-21T00:59:52.774Z,15.57
2023-03-21T01:02:23.242Z,16.00
2023-03-21T01:04:50.799Z,15.02
2023-03-21T01:07:17.924Z,14.90
2023-03-21T01:09:46.222Z,11.20
2023-03-21T01:12:15.613Z,13.48
2023-03-21T01:14:42.908Z,14.07
2023-03-21T01:17:15.134Z,16.80
2023-03-21T01:19:52.070Z,15.25
2023-03-21T01:22:21.310Z,17.25
2023-03-21T01:25:05.678Z,18.65
2023-03-21T01:27:36.251Z,17.63
2023-03-21T01:30:19.102Z,13.65
2023-03-21T01:32:48.002Z,16.55
2023-03-21T01:35:15.145Z,15.90
2023-03-21T01:37:43.725Z,14.68
2023-03-21T01:40:24.327Z,13.27
2023-03-21T01:42:56.826Z,14.10
2023-03-21T01:46:03.240Z,16.05
2023-03-21T01:48:57.744Z,17.45
2023-03-21T01:51:29.728Z,16.20
2023-03-21T01:54:00.735Z,11.77
2023-03-21T01:56:37.532Z,15.70
2023-03-21T01:59:15.147Z,15.15
2023-03-21T02:01:53.396Z,13.65
2023-03-21T02:04:28.208Z,13.77
2023-03-21T02:07:23.303Z,15.40
2023-03-21T02:09:55.523Z,11.63
2023-03-21T02:12:25.178Z,12.95
2023-03-21T02:14:53.270Z,12.13
2023-03-21T02:17:56.845Z,11.18
2023-03-21T02:21:13.081Z,12.93
2023-03-21T02:23:54.319Z,12.73
2023-03-21T02:26:45.013Z,10.38
2023-03-21T02:29:38.463Z,11.20
2023-03-21T02:32:37.530Z,11.02
2023-03-21T02:35:35.398Z,12.23
2023-03-21T02:38:18.449Z,13.43
2023-03-21T02:41:13.150Z,11.70
2023-03-21T02:44:11.453Z,14.65
2023-03-21T02:47:07.222Z,14.13
2023-03-21T02:49:50.040Z,11.70
2023-03-21T02:52:37.338Z,10.77
2023-03-21T02:55:14.260Z,14.32
2023-03-21T02:57:51.249Z,13.77
2023-03-21T03:00:26.484Z,13.93
2023-03-21T03:03:07.863Z,14.52
2023-03-21T03:06:00.166Z,15.23
2023-03-21T03:09:01.303Z,12.50
2023-03-21T03:11:34.201Z,14.82
2023-03-21T03:14:32.211Z,15.27
2023-03-21T03:17:34.938Z,18.52
2023-03-21T03:20:25.757Z,15.10
2023-03-21T03:23:31.392Z,15.63
2023-03-21T03:26:28.746Z,14.77
2023-03-21T03:29:03.293Z,17.80
2023-03-21T03:31:36.217Z,17.35
2023-03-21T03:34:10.564Z,18.45
2023-03-21T03:36:44.914Z,16.33
2023-03-21T03:39:16.342Z,17.73
2023-03-21T03:42:25.484Z,18.58
2023-03-21T03:44:44.753Z,16.50
2023-03-21T03:47:33.915Z,13.73
2023-03-21T03:50:21.123Z,14.93
2023-03-21T03:53:01.251Z,15.13
2023-03-21T03:58:22.101Z,14.27
2023-03-21T04:00:51.942Z,13.88
2023-03-21T04:03:19.114Z,12.57
2023-03-21T04:05:48.481Z,14.88
2023-03-21T04:08:17.382Z,15.57
2023-03-21T04:10:51.818Z,11.05
2023-03-21T04:13:19.693Z,13.38
2023-03-21T04:16:08.839Z,11.75
2023-03-21T04:18:36.191Z,16.50
2023-03-21T04:21:07.804Z,10.57
2023-03-21T04:23:36.038Z,10.15
2023-03-21T04:26:04.623Z,9.40
2023-03-21T04:28:37.370Z,8.73
2023-03-21T04:31:27.247Z,7.82
2023-03-21T04:34:09.976Z,8.02
2023-03-21T04:36:43.541Z,9.18
2023-03-21T04:39:13.505Z,7.47
2023-03-21T04:41:45.482Z,9.18
2023-03-21T04:44:18.882Z,8.93
2023-03-21T04:46:46.959Z,6.70
2023-03-21T04:49:19.073Z,6.45
2023-03-21T04:51:46.422Z,5.60
2023-03-21T04:54:18.425Z,6.32
2023-03-21T04:56:45.659Z,7.50
2023-03-21T04:59:15.576Z,6.63
2023-03-21T05:01:43.985Z,4.70
2023-03-21T05:04:13.264Z,3.67
2023-03-21T05:06:42.770Z,5.93
2023-03-21T05:09:10.115Z,5.45
2023-03-21T05:11:40.448Z,4.95
2023-03-21T05:14:14.761Z,6.82
2023-03-21T05:16:45.215Z,5.53
2023-03-21T05:19:14.104Z,5.57
2023-03-21T05:21:45.895Z,7.57
2023-03-21T05:24:20.066Z,6.18
2023-03-21T05:26:52.406Z,5.97
2023-03-21T05:29:25.144Z,7.40
2023-03-21T05:31:58.904Z,8.70
2023-03-21T05:34:27.249Z,6.60
2023-03-21T05:36:55.465Z,8.52
2023-03-21T05:39:25.375Z,10.40
2023-03-21T05:42:15.146Z,8.75
2023-03-21T05:44:42.992Z,6.50
2023-03-21T05:47:16.815Z,9.05
2023-03-21T05:52:22.084Z,5.18
2023-03-21T05:54:49.815Z,5.43
2023-03-21T05:57:29.174Z,4.10
2023-03-21T06:00:03.865Z,5.13
2023-03-21T06:02:42.479Z,4.65
2023-03-21T06:05:26.536Z,3.95
2023-03-21T06:07:54.203Z,3.90
2023-03-21T06:10:22.037Z,4.47
2023-03-21T06:12:49.902Z,4.38
2023-03-21T06:15:26.905Z,4.25
2023-03-21T06:18:04.881Z,3.83
2023-03-21T06:20:32.863Z,3.75
2023-03-21T06:23:07.909Z,3.42
2023-03-21T06:25:35.348Z,3.47
2023-03-21T06:28:04.511Z,2.88
2023-03-21T06:30:33.310Z,4.28
2023-03-21T06:33:20.376Z,4.78
2023-03-21T06:35:55.016Z,4.95
2023-03-21T06:38:23.296Z,4.80
2023-03-21T06:40:51.125Z,7.05
2023-03-21T06:43:18.680Z,6.25
2023-03-21T06:45:46.738Z,6.35
2023-03-21T06:48:14.221Z,7.95
2023-03-21T06:50:52.362Z,7.35
2023-03-21T06:53:25.000Z,6.18
2023-03-21T06:56:15.579Z,5.28
2023-03-21T06:58:43.772Z,6.40
2023-03-21T07:01:19.310Z,6.85
2023-03-21T07:03:59.047Z,6.78
2023-03-21T07:06:31.484Z,5.72
2023-03-21T07:08:59.456Z,5.53
2023-03-21T07:11:36.800Z,4.00
2023-03-21T07:14:05.534Z,6.05
2023-03-21T07:16:38.605Z,4.57
2023-03-21T07:19:05.782Z,3.58
2023-03-21T07:21:37.737Z,4.68
2023-03-21T07:24:04.981Z,10.93
2023-03-21T07:26:34.492Z,5.90
2023-03-21T07:29:04.031Z,5.65
2023-03-21T07:31:31.079Z,6.43
2023-03-21T07:34:01.810Z,6.38
2023-03-21T07:36:47.148Z,5.43
2023-03-21T07:39:14.414Z,4.75
2023-03-21T07:41:46.380Z,5.30
2023-03-21T07:44:26.716Z,6.22
2023-03-21T07:47:02.771Z,5.57
2023-03-21T07:49:30.433Z,8.98
2023-03-21T07:52:00.022Z,8.85
2023-03-21T07:54:28.716Z,6.93
2023-03-21T07:56:57.001Z,10.82
2023-03-21T07:59:27.113Z,8.90
2023-03-21T08:01:58.037Z,6.03
2023-03-21T08:04:26.086Z,6.50
2023-03-21T08:06:53.186Z,9.07
2023-03-21T08:09:20.531Z,8.52
2023-03-21T08:11:47.697Z,7.35
2023-03-21T08:14:14.879Z,9.13
2023-03-21T08:16:42.307Z,7.55
2023-03-21T08:19:09.644Z,7.47
2023-03-21T08:21:39.201Z,7.07
2023-03-21T08:24:07.272Z,9.23
2023-03-21T08:26:34.730Z,8.65
2023-03-21T08:29:03.472Z,10.05
2023-03-21T08:31:30.633Z,6.88
2023-03-21T08:34:00.320Z,7.93
2023-03-21T08:36:30.023Z,7.95
2023-03-21T08:39:05.256Z,8.90
2023-03-21T08:41:34.054Z,7.03
2023-03-21T08:44:01.414Z,7.90
2023-03-21T08:46:31.754Z,8.93
2023-03-21T08:49:01.701Z,7.13
2023-03-21T08:51:31.860Z,8.50
2023-03-21T08:54:02.200Z,8.25
2023-03-21T08:56:31.940Z,7.90
2023-03-21T08:59:04.797Z,11.48
2023-03-21T09:01:32.813Z,7.15
2023-03-21T09:04:02.410Z,8.23
2023-03-21T09:06:30.343Z,5.75
2023-03-21T09:09:00.143Z,13.68
2023-03-21T09:11:30.557Z,6.55
2023-03-21T09:13:57.900Z,5.95
2023-03-21T09:16:30.715Z,6.35
2023-03-21T09:19:03.410Z,6.55
2023-03-21T09:21:34.560Z,5.68
2023-03-21T09:24:05.967Z,6.75
2023-03-21T09:26:36.753Z,7.68
2023-03-21T09:29:06.049Z,10.18
2023-03-21T09:31:33.403Z,7.78
2023-03-21T09:34:00.817Z,7.43
2023-03-21T09:36:32.695Z,8.52
2023-03-21T09:39:05.452Z,5.18
2023-03-21T09:41:45.050Z,6.25
2023-03-21T09:44:27.964Z,6.22
2023-03-21T09:47:21.914Z,3.88
2023-03-21T09:50:15.110Z,5.35
2023-03-21T09:53:08.927Z,5.32
2023-03-21T09:55:39.751Z,5.30
2023-03-21T09:58:26.411Z,3.63
2023-03-21T10:01:01.293Z,8.25
2023-03-21T10:03:35.295Z,3.65
2023-03-21T10:06:07.569Z,4.68
2023-03-21T10:11:21.704Z,6.97
2023-03-21T10:14:09.784Z,4.38
2023-03-21T10:16:43.649Z,5.20
2023-03-21T10:19:18.994Z,4.65
2023-03-21T10:22:00.832Z,3.83
2023-03-21T10:26:59.610Z,5.15
2023-03-21T10:29:47.350Z,5.35
2023-03-21T10:32:18.295Z,7.15
2023-03-21T10:34:51.324Z,6.50
2023-03-21T10:37:18.837Z,5.85
2023-03-21T10:39:49.041Z,6.05
2023-03-21T10:42:33.447Z,4.55
2023-03-21T10:45:00.936Z,5.15
2023-03-21T10:47:38.286Z,3.83
2023-03-21T10:50:12.399Z,3.50
2023-03-21T10:52:47.697Z,5.10
2023-03-21T10:55:28.920Z,4.40
2023-03-21T10:58:07.678Z,4.68
2023-03-21T11:00:43.559Z,5.43
2023-03-21T11:03:43.754Z,4.47
2023-03-21T11:06:23.167Z,6.40
2023-03-21T11:09:17.629Z,4.57
2023-03-21T11:12:09.116Z,5.20
2023-03-21T11:14:51.199Z,4.95
2023-03-21T11:17:18.303Z,4.15
2023-03-21T11:19:51.222Z,3.47
2023-03-21T11:22:24.867Z,6.57
2023-03-21T11:24:54.759Z,4.57
2023-03-21T11:27:21.918Z,4.95
2023-03-21T11:29:52.416Z,5.65
2023-03-21T11:32:26.917Z,7.28
2023-03-21T11:35:12.764Z,6.18
2023-03-21T11:37:51.279Z,8.85
2023-03-21T11:40:26.158Z,9.55
2023-03-21T11:43:00.572Z,7.00
2023-03-21T11:45:27.648Z,9.23
2023-03-21T11:47:59.903Z,5.72
2023-03-21T11:53:04.183Z,7.30
2023-03-21T11:56:02.767Z,5.65
2023-03-21T11:58:55.937Z,6.38
2023-03-21T12:01:37.617Z,5.38
2023-03-21T12:04:23.109Z,5.33
2023-03-21T12:07:01.596Z,8.45
2023-03-21T12:09:46.878Z,7.28
2023-03-21T12:13:05.371Z,6.18
2023-03-21T12:15:58.184Z,6.25
2023-03-21T12:19:23.616Z,7.78
2023-03-21T12:21:56.825Z,5.40
2023-03-21T12:24:32.971Z,7.63
2023-03-21T12:27:24.969Z,5.18
2023-03-21T12:30:24.471Z,7.03
2023-03-21T12:32:54.807Z,8.45
2023-03-21T12:35:54.125Z,7.00
2023-03-21T12:38:58.899Z,6.25
2023-03-21T12:41:37.732Z,6.70
2023-03-21T12:44:10.504Z,4.72
2023-03-21T12:47:02.486Z,8.45
2023-03-21T12:49:35.257Z,6.00
2023-03-21T12:52:12.029Z,7.18
2023-03-21T12:54:46.984Z,4.45
2023-03-21T12:57:31.145Z,7.57
2023-03-21T13:00:11.932Z,7.38
2023-03-21T13:02:51.322Z,6.75
2023-03-21T13:05:23.589Z,4.00
2023-03-21T13:08:12.348Z,3.72
2023-03-21T13:10:44.619Z,7.63
2023-03-21T13:13:13.562Z,6.88
2023-03-21T13:15:48.936Z,5.47
2023-03-21T13:18:53.907Z,5.10
2023-03-21T13:21:49.121Z,7.03
2023-03-21T13:24:44.674Z,7.93
2023-03-21T13:27:39.971Z,5.45
2023-03-21T13:30:21.961Z,6.72
2023-03-21T13:32:51.744Z,4.22
2023-03-21T13:35:43.986Z,5.47
2023-03-21T13:38:32.443Z,7.50
2023-03-21T13:41:05.865Z,7.80
2023-03-21T13:43:55.041Z,8.75
2023-03-21T13:46:25.627Z,3.22
2023-03-21T13:48:58.936Z,4.45
2023-03-21T13:51:30.013Z,3.80
2023-03-21T13:54:10.009Z,7.68
2023-03-21T13:56:48.322Z,11.60
2023-03-21T13:59:22.216Z,7.18
2023-03-21T14:02:21.238Z,6.63
2023-03-21T14:05:06.386Z,6.93
2023-03-21T14:07:42.609Z,5.97
2023-03-21T14:10:22.157Z,3.97
2023-03-21T14:12:49.992Z,7.32
2023-03-21T14:15:25.872Z,7.50
2023-03-21T14:18:15.806Z,4.05
2023-03-21T14:20:55.541Z,6.18
2023-03-21T14:23:28.261Z,6.43
2023-03-21T14:25:57.825Z,7.88
2023-03-21T14:28:28.662Z,6.25
2023-03-21T14:31:01.037Z,4.63
2023-03-21T14:33:41.662Z,7.88
2023-03-21T14:36:17.896Z,9.27
2023-03-21T14:39:15.207Z,6.07
2023-03-21T14:41:56.215Z,4.32
2023-03-21T14:44:37.966Z,6.80
2023-03-21T14:47:24.891Z,6.63
2023-03-21T14:49:52.792Z,5.35
2023-03-21T14:52:35.369Z,6.75
2023-03-21T14:55:14.041Z,6.53
2023-03-21T14:57:42.244Z,6.25
2023-03-21T15:00:29.196Z,8.00
2023-03-21T15:02:59.379Z,5.68
2023-03-21T15:05:39.355Z,5.10
2023-03-21T15:08:19.341Z,3.40
2023-03-21T15:11:06.976Z,3.47
2023-03-21T15:13:51.369Z,6.30
2023-03-21T15:16:19.378Z,4.68
2023-03-21T15:18:47.128Z,5.07
2023-03-21T15:21:27.885Z,4.00
2023-03-21T15:23:59.908Z,7.90
2023-03-21T15:26:31.257Z,4.97
2023-03-21T15:29:01.268Z,5.83
2023-03-21T15:31:44.273Z,5.50
2023-03-21T15:34:42.453Z,4.15
2023-03-21T15:37:17.295Z,4.43
2023-03-21T15:39:51.930Z,4.78
2023-03-21T15:42:40.956Z,4.45
2023-03-21T15:45:19.071Z,2.88
2023-03-21T15:47:49.454Z,3.42
2023-03-21T15:50:28.110Z,3.45
2023-03-21T15:52:58.994Z,4.20
2023-03-21T15:55:49.924Z,5.38
2023-03-21T15:58:24.060Z,4.50
2023-03-21T16:00:59.173Z,5.20
2023-03-21T16:03:38.155Z,4.93
2023-03-21T16:06:26.679Z,3.80
2023-03-21T16:10:04.949Z,3.42
2023-03-21T16:12:44.914Z,4.50
2023-03-21T16:15:12.296Z,4.80
2023-03-21T16:17:39.812Z,2.72
2023-03-21T16:20:33.996Z,2.80
2023-03-21T16:23:14.715Z,5.47
2023-03-21T16:25:58.090Z,4.75
2023-03-21T16:28:25.707Z,3.50
2023-03-21T16:31:12.532Z,3.15
2023-03-21T16:34:08.434Z,3.88
2023-03-21T16:36:38.430Z,4.03
2023-03-21T16:39:26.420Z,4.45
2023-03-21T16:41:53.913Z,3.42
2023-03-21T16:44:23.747Z,3.58
2023-03-21T16:46:53.477Z,4.13
2023-03-21T16:49:24.923Z,4.38
2023-03-21T16:51:53.127Z,3.57
2023-03-21T16:54:23.401Z,4.78
2023-03-21T16:57:01.835Z,4.95
2023-03-21T17:03:30.205Z,7.55
2023-03-21T17:05:57.623Z,6.13
2023-03-21T17:08:24.946Z,6.97
2023-03-21T17:11:04.394Z,6.35
2023-03-21T17:13:32.894Z,5.43
2023-03-21T17:16:00.154Z,5.88
2023-03-21T17:22:35.787Z,4.47
2023-03-21T17:25:06.618Z,6.10
2023-03-21T17:27:34.005Z,6.18
2023-03-21T17:30:01.151Z,7.22
2023-03-21T17:32:28.781Z,7.40
2023-03-21T17:34:55.787Z,6.72
2023-03-21T17:37:28.647Z,8.48
2023-03-21T17:39:55.704Z,4.70
2023-03-21T17:42:22.683Z,5.75
2023-03-21T17:44:49.746Z,6.30
2023-03-21T17:47:16.989Z,5.88
2023-03-21T17:49:46.085Z,5.15
2023-03-21T17:52:13.348Z,5.18
2023-03-21T17:54:42.326Z,4.18
2023-03-21T17:57:12.775Z,4.80
2023-03-21T17:59:43.101Z,5.43
2023-03-21T18:02:13.428Z,3.33
2023-03-21T18:04:40.692Z,3.72
2023-03-21T18:07:16.168Z,4.32
2023-03-21T18:09:48.078Z,3.80
2023-03-21T18:12:15.762Z,3.53
2023-03-21T18:14:44.112Z,2.47
2023-03-21T18:17:18.690Z,2.67
2023-03-21T18:19:47.777Z,3.03
2023-03-21T18:22:14.992Z,2.92
2023-03-21T18:24:45.394Z,3.70
2023-03-21T18:27:13.035Z,2.50
2023-03-21T18:30:25.957Z,3.70
2023-03-21T18:32:31.802Z,2.65
2023-03-21T18:35:04.547Z,2.58
2023-03-21T18:37:31.725Z,1.98
2023-03-21T18:40:04.333Z,3.65
2023-03-21T18:42:31.620Z,2.30
2023-03-21T18:45:02.526Z,3.97
2023-03-21T18:47:31.440Z,4.05
2023-03-21T18:50:13.644Z,2.05
2023-03-21T18:52:44.516Z,2.03
2023-03-21T18:58:02.551Z,2.80
2023-03-21T19:00:30.545Z,2.30
2023-03-21T19:03:18.887Z,2.03
2023-03-21T19:06:01.990Z,2.10
2023-03-21T19:08:29.549Z,2.35
2023-03-21T19:10:59.536Z,4.32
2023-03-21T19:13:32.089Z,3.35
2023-03-21T19:15:59.419Z,2.90
2023-03-21T19:18:49.513Z,2.38
2023-03-21T19:21:17.632Z,3.08
2023-03-21T19:24:22.845Z,2.00
2023-03-21T19:27:04.096Z,2.92
2023-03-21T19:29:31.673Z,1.63
2023-03-21T19:32:08.308Z,3.20
2023-03-21T19:34:35.699Z,3.10
2023-03-21T19:45:38.052Z,3.03
2023-03-21T19:48:15.674Z,3.13
2023-03-21T19:54:11.598Z,2.40
2023-03-21T19:56:47.605Z,5.60
2023-03-21T20:00:05.636Z,2.35
2023-03-21T20:02:36.135Z,3.63
2023-03-21T20:05:07.131Z,4.28
2023-03-21T20:07:34.621Z,2.80
2023-03-21T20:10:03.825Z,3.10
2023-03-21T20:13:43.426Z,2.35
2023-03-21T20:16:10.723Z,2.50
2023-03-21T20:18:52.671Z,4.05
2023-03-21T20:21:25.318Z,3.05
2023-03-21T20:27:41.497Z,2.40
2023-03-21T20:30:12.558Z,2.78
2023-03-21T20:32:41.528Z,2.25
2023-03-21T20:35:25.240Z,2.42
2023-03-21T20:38:29.854Z,3.55
2023-03-21T20:42:10.002Z,2.92
2023-03-21T20:45:57.606Z,2.78
2023-03-21T20:48:46.394Z,4.30
2023-03-21T20:54:18.956Z,2.17
2023-03-21T20:56:46.596Z,2.42
2023-03-21T20:59:24.570Z,2.40
2023-03-21T21:01:58.676Z,3.45
2023-03-21T21:08:48.000Z,4.28
2023-03-21T21:12:02.934Z,2.78
2023-03-21T21:14:06.449Z,2.17
2023-03-21T21:16:37.255Z,3.03
2023-03-21T21:19:11.626Z,2.17
2023-03-21T21:21:39.536Z,3.20
2023-03-21T21:24:11.052Z,4.88
2023-03-21T21:26:41.179Z,4.85
2023-03-21T21:29:11.248Z,6.15
2023-03-21T21:31:54.562Z,5.97
2023-03-21T21:34:21.755Z,5.28
2023-03-21T21:36:49.790Z,5.85
2023-03-21T21:39:16.986Z,5.13
2023-03-21T21:41:44.469Z,4.65
2023-03-21T21:44:11.873Z,5.20
2023-03-21T21:47:20.225Z,6.15
2023-03-21T21:50:26.823Z,5.03
2023-03-21T21:52:58.954Z,5.60
2023-03-21T21:55:26.266Z,5.68
2023-03-21T21:57:58.165Z,6.03
2023-03-21T22:05:16.479Z,7.57
2023-03-21T22:07:43.841Z,6.28
2023-03-21T22:10:11.586Z,5.75
2023-03-21T22:12:38.820Z,8.05
2023-03-21T22:15:10.888Z,7.18
2023-03-21T22:17:39.419Z,8.40
2023-03-21T22:20:12.791Z,6.38
2023-03-21T22:22:40.713Z,6.45
2023-03-21T22:25:11.157Z,8.15
2023-03-21T22:27:38.516Z,6.82
2023-03-21T22:30:08.325Z,8.05
2023-03-21T22:32:38.260Z,8.20
2023-03-21T22:35:07.162Z,8.27
2023-03-21T22:37:36.152Z,8.18
2023-03-21T22:40:05.970Z,7.10
2023-03-21T22:42:33.098Z,8.60
2023-03-21T22:45:01.618Z,6.25
2023-03-21T22:47:32.203Z,6.82
2023-03-21T22:49:59.924Z,7.55
2023-03-21T22:52:29.575Z,8.27
2023-03-21T22:54:56.853Z,6.50
2023-03-21T22:57:24.082Z,5.55
2023-03-21T22:59:53.493Z,5.38
2023-03-21T23:02:20.743Z,5.93
2023-03-21T23:04:47.788Z,5.10
2023-03-21T23:07:15.098Z,3.85
2023-03-21T23:09:42.230Z,4.22
2023-03-21T23:12:12.406Z,6.07
2023-03-21T23:14:39.761Z,6.70
2023-03-21T23:17:06.808Z,4.70
2023-03-21T23:19:33.999Z,5.53
2023-03-21T23:22:01.335Z,4.38
2023-03-21T23:24:31.021Z,3.42
2023-03-21T23:26:58.432Z,4.15
2023-03-21T23:29:25.636Z,6.38
2023-03-21T23:31:52.909Z,4.53
2023-03-21T23:37:01.143Z,3.35
2023-03-21T23:39:31.315Z,2.45
2023-03-21T23:42:01.506Z,2.92
2023-03-21T23:44:33.530Z,4.32
2023-03-21T23:47:02.964Z,3.55
2023-03-21T23:49:33.816Z,3.33
2023-03-21T23:52:01.299Z,5.95
2023-03-21T23:54:31.125Z,7.35
2023-03-21T23:57:07.078Z,5.03
2023-03-21T23:59:34.346Z,6.75
